Time;durP1;ratioP1;P1;durP2;ratioP2;P2;SDS_P1;SDS_P2;PMS_P1;PMS_P2;Temp;Humidity;BMP_temperature;BMP_pressure;BME280_temperature;BME280_humidity;BME280_pressure;Samples;Min_cycle;Max_cycle;Signal;HPM_P1;HPM_P2
2023/10/31 00:01:20;;;;;;;1.00;0.50;;;;;;;;;;5076516;28;20024;-87
2023/10/31 00:04:05;;;;;;;0.50;0.50;;;;;;;;;;5078174;28;20012;-86
2023/10/31 00:06:50;;;;;;;1.02;0.90;;;;;;;;;;5074501;28;20035;-87
2023/10/31 00:09:35;;;;;;;2.25;0.77;;;;;;;;;;5074945;28;20131;-86
2023/10/31 00:12:21;;;;;;;0.70;0.50;;;;;;;;;;5069969;28;20035;-86
2023/10/31 00:15:06;;;;;;;1.88;0.80;;;;;;;;;;5078114;28;20035;-86
2023/10/31 00:17:51;;;;;;;1.02;0.70;;;;;;;;;;5069421;28;20024;-86
2023/10/31 00:20:36;;;;;;;0.70;0.50;;;;;;;;;;5064302;28;20103;-87
2023/10/31 00:23:22;;;;;;;2.10;0.60;;;;;;;;;;5059222;28;20012;-86
2023/10/31 00:26:09;;;;;;;1.08;0.70;;;;;;;;;;5072811;28;20024;-85
2023/10/31 00:28:54;;;;;;;0.80;0.60;;;;;;;;;;5074683;28;20083;-86
2023/10/31 00:31:41;;;;;;;2.22;0.60;;;;;;;;;;5066943;28;20020;-86
2023/10/31 00:34:26;;;;;;;0.75;0.60;;;;;;;;;;5065083;28;20371;-87
2023/10/31 00:37:11;;;;;;;0.55;0.55;;;;;;;;;;5061546;28;20449;-86
2023/10/31 00:39:56;;;;;;;0.50;0.40;;;;;;;;;;5076271;28;20012;-87
2023/10/31 00:42:42;;;;;;;0.80;0.60;;;;;;;;;;5075228;28;20055;-86
2023/10/31 00:45:27;;;;;;;0.65;0.63;;;;;;;;;;5072918;28;20032;-87
2023/10/31 00:48:12;;;;;;;0.50;0.50;;;;;;;;;;5061625;28;20101;-87
2023/10/31 00:50:57;;;;;;;0.50;0.50;;;;;;;;;;5075693;28;20070;-87
2023/10/31 00:53:43;;;;;;;0.40;0.40;;;;;;;;;;5074573;28;20494;-87
2023/10/31 00:56:28;;;;;;;0.65;0.55;;;;;;;;;;5076563;28;20115;-87
2023/10/31 00:59:13;;;;;;;0.98;0.50;;;;;;;;;;5075252;28;20055;-86
2023/10/31 01:01:58;;;;;;;1.05;0.80;;;;;;;;;;5076962;28;20024;-87
2023/10/31 01:04:43;;;;;;;2.00;0.50;;;;;;;;;;5079315;28;20423;-86
2023/10/31 01:07:29;;;;;;;0.50;0.50;;;;;;;;;;5076832;28;20055;-86
2023/10/31 01:10:14;;;;;;;1.05;0.70;;;;;;;;;;5079403;28;20097;-86
2023/10/31 01:12:59;;;;;;;1.85;0.50;;;;;;;;;;5079117;28;20119;-88
2023/10/31 01:15:45;;;;;;;1.08;1.00;;;;;;;;;;5078594;28;20045;-88
2023/10/31 01:18:30;;;;;;;2.10;0.55;;;;;;;;;;5071277;28;20024;-88
2023/10/31 01:21:15;;;;;;;1.38;0.60;;;;;;;;;;5072855;28;20458;-88
2023/10/31 01:24:01;;;;;;;0.82;0.50;;;;;;;;;;5058012;28;20029;-86
2023/10/31 01:26:46;;;;;;;0.82;0.50;;;;;;;;;;5075984;28;20041;-86
2023/10/31 01:29:32;;;;;;;1.17;0.60;;;;;;;;;;5078681;28;20047;-86
2023/10/31 01:32:18;;;;;;;0.85;0.60;;;;;;;;;;5083466;28;20035;-87
2023/10/31 01:35:04;;;;;;;1.00;0.60;;;;;;;;;;5078598;28;20037;-86
2023/10/31 01:37:49;;;;;;;1.80;0.68;;;;;;;;;;5057981;28;20526;-87
2023/10/31 01:40:34;;;;;;;1.85;0.70;;;;;;;;;;5065295;28;20023;-87
2023/10/31 01:43:36;;;;;;;0.75;0.52;;;;;;;;;;5079772;28;20032;-87
2023/10/31 01:46:21;;;;;;;2.47;0.70;;;;;;;;;;5064086;28;20416;-87
2023/10/31 01:49:06;;;;;;;1.25;0.68;;;;;;;;;;5059840;28;20027;-87
2023/10/31 01:51:52;;;;;;;2.00;0.50;;;;;;;;;;5077031;28;20054;-86
2023/10/31 01:54:37;;;;;;;0.82;0.60;;;;;;;;;;5079234;28;20032;-86
2023/10/31 01:57:22;;;;;;;2.35;0.80;;;;;;;;;;5078265;28;20031;-87
2023/10/31 02:00:08;;;;;;;2.15;0.60;;;;;;;;;;5082442;28;20020;-87
2023/10/31 02:02:54;;;;;;;1.35;0.57;;;;;;;;;;5067712;28;20115;-87
2023/10/31 02:05:39;;;;;;;3.33;0.70;;;;;;;;;;5077933;28;20036;-87
2023/10/31 02:08:25;;;;;;;4.32;1.10;;;;;;;;;;5077228;28;20062;-86
2023/10/31 02:11:10;;;;;;;2.08;0.70;;;;;;;;;;5078177;28;20051;-87
2023/10/31 02:13:55;;;;;;;2.17;0.75;;;;;;;;;;5068611;28;20036;-88
2023/10/31 02:16:41;;;;;;;0.95;0.60;;;;;;;;;;5076473;28;20043;-87
2023/10/31 02:19:27;;;;;;;2.47;0.50;;;;;;;;;;5080738;28;20063;-87
2023/10/31 02:22:14;;;;;;;4.05;0.80;;;;;;;;;;5077497;28;20023;-88
2023/10/31 02:24:59;;;;;;;1.52;0.60;;;;;;;;;;5077964;28;20032;-87
2023/10/31 02:27:45;;;;;;;1.70;0.80;;;;;;;;;;5075633;28;20035;-88
2023/10/31 02:30:30;;;;;;;1.23;0.75;;;;;;;;;;5064021;28;20028;-87
2023/10/31 02:33:15;;;;;;;2.05;0.90;;;;;;;;;;5084751;28;20517;-87
2023/10/31 02:36:01;;;;;;;2.75;0.80;;;;;;;;;;5073227;28;20028;-87
2023/10/31 02:38:46;;;;;;;1.55;0.70;;;;;;;;;;5066562;28;20024;-86
2023/10/31 02:41:31;;;;;;;4.20;1.10;;;;;;;;;;5070196;28;20052;-86
2023/10/31 02:44:16;;;;;;;3.78;0.75;;;;;;;;;;5083070;28;20040;-86
2023/10/31 02:47:02;;;;;;;0.60;0.60;;;;;;;;;;5100843;28;20072;-86
2023/10/31 02:49:47;;;;;;;0.70;0.65;;;;;;;;;;5110058;28;20024;-87
2023/10/31 02:52:32;;;;;;;3.42;0.75;;;;;;;;;;5097074;28;20008;-87
2023/10/31 02:55:17;;;;;;;6.43;1.08;;;;;;;;;;5096423;28;20057;-87
2023/10/31 02:58:03;;;;;;;5.00;0.73;;;;;;;;;;5064095;28;20541;-86
2023/10/31 03:00:48;;;;;;;1.60;0.70;;;;;;;;;;5078674;28;20597;-86
2023/10/31 03:03:33;;;;;;;2.53;0.70;;;;;;;;;;5064214;28;20024;-86
2023/10/31 03:06:18;;;;;;;1.55;0.73;;;;;;;;;;5078010;28;20024;-87
2023/10/31 03:09:04;;;;;;;1.52;0.70;;;;;;;;;;5057402;28;20428;-86
2023/10/31 03:11:49;;;;;;;2.25;1.08;;;;;;;;;;5047531;28;20019;-86
2023/10/31 03:14:34;;;;;;;3.15;0.90;;;;;;;;;;5076848;28;20024;-88
2023/10/31 03:17:19;;;;;;;0.80;0.70;;;;;;;;;;5063984;28;20031;-88
2023/10/31 03:20:05;;;;;;;1.23;1.13;;;;;;;;;;5083823;28;20538;-88
2023/10/31 03:22:50;;;;;;;1.85;0.80;;;;;;;;;;5076201;28;20095;-89
2023/10/31 03:25:35;;;;;;;3.97;0.70;;;;;;;;;;5063243;28;20031;-88
2023/10/31 03:28:23;;;;;;;1.85;0.70;;;;;;;;;;5075760;28;20028;-89
2023/10/31 03:31:09;;;;;;;3.45;0.70;;;;;;;;;;5065344;28;20047;-87
2023/10/31 03:33:54;;;;;;;1.60;0.70;;;;;;;;;;5072599;28;20081;-87
2023/10/31 03:36:39;;;;;;;2.78;0.80;;;;;;;;;;5084135;28;20039;-87
2023/10/31 03:39:25;;;;;;;0.77;0.50;;;;;;;;;;5080746;28;20078;-87
2023/10/31 03:42:10;;;;;;;1.17;0.60;;;;;;;;;;5057982;28;20028;-86
2023/10/31 03:44:55;;;;;;;1.77;0.75;;;;;;;;;;5066254;28;20016;-87
2023/10/31 03:47:40;;;;;;;1.63;0.70;;;;;;;;;;5072999;28;20069;-87
2023/10/31 03:50:26;;;;;;;4.10;0.70;;;;;;;;;;5056226;28;20036;-86
2023/10/31 03:53:12;;;;;;;0.75;0.70;;;;;;;;;;5054560;28;20111;-87
2023/10/31 03:55:58;;;;;;;1.70;0.98;;;;;;;;;;5062376;28;20082;-86
2023/10/31 03:58:43;;;;;;;2.40;0.63;;;;;;;;;;5073664;28;20031;-86
2023/10/31 04:01:29;;;;;;;1.60;0.82;;;;;;;;;;5061650;28;20020;-86
2023/10/31 04:04:14;;;;;;;3.17;0.80;;;;;;;;;;5070142;28;20028;-86
2023/10/31 04:06:59;;;;;;;2.67;0.90;;;;;;;;;;5084476;28;20474;-86
2023/10/31 04:09:44;;;;;;;5.03;0.85;;;;;;;;;;5073867;28;20051;-86
2023/10/31 04:12:30;;;;;;;4.35;1.08;;;;;;;;;;5062116;28;20132;-86
2023/10/31 04:15:15;;;;;;;0.70;0.70;;;;;;;;;;5075870;28;20076;-86
2023/10/31 04:18:00;;;;;;;2.22;0.90;;;;;;;;;;5050034;28;20020;-85
2023/10/31 04:20:45;;;;;;;3.70;1.10;;;;;;;;;;5082924;28;20051;-87
2023/10/31 04:23:30;;;;;;;2.55;1.13;;;;;;;;;;5070197;28;20027;-86
2023/10/31 04:26:17;;;;;;;3.22;0.85;;;;;;;;;;5055625;28;20434;-85
2023/10/31 04:29:02;;;;;;;2.08;0.95;;;;;;;;;;5068162;28;20394;-87
2023/10/31 04:31:47;;;;;;;2.30;0.70;;;;;;;;;;5075474;28;20031;-87
2023/10/31 04:34:32;;;;;;;2.05;0.85;;;;;;;;;;5063573;28;20457;-85
2023/10/31 04:37:18;;;;;;;1.90;0.85;;;;;;;;;;5085056;28;20024;-86
2023/10/31 04:40:03;;;;;;;3.95;0.80;;;;;;;;;;5061208;28;20020;-87
2023/10/31 04:42:48;;;;;;;1.75;0.77;;;;;;;;;;5069529;28;20043;-88
2023/10/31 04:45:33;;;;;;;5.78;0.95;;;;;;;;;;5078749;28;20090;-87
2023/10/31 04:48:19;;;;;;;1.63;0.70;;;;;;;;;;5065598;28;20031;-88
2023/10/31 04:51:04;;;;;;;4.78;0.90;;;;;;;;;;5072183;28;20025;-87
2023/10/31 04:53:49;;;;;;;2.30;0.80;;;;;;;;;;5069522;28;20442;-87
2023/10/31 04:56:34;;;;;;;1.52;0.68;;;;;;;;;;5075525;28;20071;-88
2023/10/31 04:59:20;;;;;;;1.35;0.80;;;;;;;;;;5057962;28;20071;-87
2023/10/31 05:02:05;;;;;;;3.00;1.00;;;;;;;;;;5066632;28;20024;-87
2023/10/31 05:04:51;;;;;;;2.15;0.80;;;;;;;;;;5077828;28;20036;-87
2023/10/31 05:07:36;;;;;;;2.35;0.90;;;;;;;;;;5069831;28;20108;-87
2023/10/31 05:10:21;;;;;;;0.93;0.73;;;;;;;;;;5075193;28;20048;-86
2023/10/31 05:13:07;;;;;;;1.25;0.70;;;;;;;;;;5077075;28;20051;-86
2023/10/31 05:15:52;;;;;;;1.42;0.75;;;;;;;;;;5073769;28;20059;-86
2023/10/31 05:18:37;;;;;;;2.80;0.98;;;;;;;;;;5067968;28;20024;-86
2023/10/31 05:21:23;;;;;;;2.63;0.70;;;;;;;;;;5086601;28;20034;-86
2023/10/31 05:24:08;;;;;;;2.50;0.80;;;;;;;;;;5075240;28;20477;-85
2023/10/31 05:26:54;;;;;;;2.83;0.60;;;;;;;;;;5070859;28;20020;-86
2023/10/31 05:29:39;;;;;;;1.55;0.98;;;;;;;;;;5052081;28;20116;-86
2023/10/31 05:32:24;;;;;;;1.45;0.98;;;;;;;;;;5069052;28;20044;-86
2023/10/31 05:35:10;;;;;;;1.02;0.60;;;;;;;;;;5063788;28;20078;-86
2023/10/31 05:37:55;;;;;;;1.45;0.60;;;;;;;;;;5065597;28;20040;-86
2023/10/31 05:40:40;;;;;;;2.70;0.60;;;;;;;;;;5052411;28;20055;-88
2023/10/31 05:43:26;;;;;;;0.93;0.70;;;;;;;;;;5060757;28;20052;-87
2023/10/31 05:46:13;;;;;;;2.45;0.77;;;;;;;;;;5079658;28;20027;-86
2023/10/31 05:48:58;;;;;;;3.63;0.85;;;;;;;;;;5069118;28;20082;-87
2023/10/31 05:51:44;;;;;;;1.75;0.85;;;;;;;;;;5079109;28;20028;-88
2023/10/31 05:54:29;;;;;;;2.80;0.98;;;;;;;;;;5064349;28;20058;-88
2023/10/31 05:57:14;;;;;;;2.47;0.80;;;;;;;;;;5072541;28;20280;-86
2023/10/31 05:59:59;;;;;;;4.65;0.85;;;;;;;;;;5059603;28;20103;-86
2023/10/31 06:02:44;;;;;;;5.68;0.70;;;;;;;;;;5074939;28;20149;-86
2023/10/31 06:05:30;;;;;;;1.20;1.02;;;;;;;;;;5076018;28;20031;-87
2023/10/31 06:08:15;;;;;;;1.60;0.80;;;;;;;;;;5078397;28;20098;-86
2023/10/31 06:11:00;;;;;;;1.23;0.90;;;;;;;;;;5078439;28;20059;-87
2023/10/31 06:13:47;;;;;;;4.88;1.40;;;;;;;;;;5078427;28;20023;-88
2023/10/31 06:16:33;;;;;;;1.40;0.93;;;;;;;;;;5072729;28;20498;-88
2023/10/31 06:19:18;;;;;;;1.25;0.70;;;;;;;;;;5062605;28;20043;-88
2023/10/31 06:22:03;;;;;;;1.13;0.63;;;;;;;;;;5086052;28;20058;-88
2023/10/31 06:24:48;;;;;;;2.60;0.75;;;;;;;;;;5060654;28;20032;-88
2023/10/31 06:27:34;;;;;;;3.95;0.90;;;;;;;;;;5077623;28;20016;-86
2023/10/31 06:30:19;;;;;;;4.30;1.80;;;;;;;;;;5072305;28;20019;-87
2023/10/31 06:33:07;;;;;;;1.05;0.80;;;;;;;;;;5071059;28;20024;-86
2023/10/31 06:35:53;;;;;;;1.42;0.70;;;;;;;;;;5082353;28;20028;-86
2023/10/31 06:38:38;;;;;;;1.88;0.93;;;;;;;;;;5079318;28;20020;-86
2023/10/31 06:41:24;;;;;;;2.22;0.90;;;;;;;;;;5077138;28;20028;-86
2023/10/31 06:44:09;;;;;;;3.53;0.82;;;;;;;;;;5069331;28;20024;-86
2023/10/31 06:46:54;;;;;;;1.45;0.88;;;;;;;;;;5077441;28;20113;-85
2023/10/31 06:49:39;;;;;;;1.05;0.75;;;;;;;;;;5076435;28;20020;-86
2023/10/31 06:52:24;;;;;;;1.35;0.90;;;;;;;;;;5077703;28;20031;-86
2023/10/31 06:55:10;;;;;;;1.92;0.65;;;;;;;;;;5077003;28;20032;-87
2023/10/31 06:57:55;;;;;;;1.27;0.60;;;;;;;;;;5076874;28;20050;-89
2023/10/31 07:00:40;;;;;;;3.38;1.00;;;;;;;;;;5064060;28;20048;-87
2023/10/31 07:03:25;;;;;;;3.80;0.80;;;;;;;;;;5077205;28;20026;-86
2023/10/31 07:06:11;;;;;;;3.25;1.00;;;;;;;;;;5086767;28;20033;-85
2023/10/31 07:08:57;;;;;;;1.48;0.80;;;;;;;;;;5075619;28;20116;-85
2023/10/31 07:11:42;;;;;;;1.83;0.70;;;;;;;;;;5062943;28;20513;-86
2023/10/31 07:14:27;;;;;;;2.33;0.90;;;;;;;;;;5069586;28;20548;-85
2023/10/31 07:17:13;;;;;;;2.20;0.70;;;;;;;;;;5076612;28;20036;-86
2023/10/31 07:19:58;;;;;;;9.10;1.77;;;;;;;;;;5073639;28;20035;-87
2023/10/31 07:22:43;;;;;;;2.45;0.98;;;;;;;;;;5076615;28;20074;-86
2023/10/31 07:25:28;;;;;;;1.45;0.80;;;;;;;;;;5064833;28;20052;-86
2023/10/31 07:28:14;;;;;;;2.35;1.10;;;;;;;;;;5076115;28;20028;-86
2023/10/31 07:30:59;;;;;;;4.53;1.33;;;;;;;;;;5065485;28;20040;-86
2023/10/31 07:33:45;;;;;;;1.70;0.90;;;;;;;;;;5061195;28;20027;-83
2023/10/31 07:36:32;;;;;;;1.58;0.80;;;;;;;;;;5085710;28;20027;-82
2023/10/31 07:39:17;;;;;;;2.40;0.70;;;;;;;;;;5075914;28;20039;-81
2023/10/31 07:42:02;;;;;;;0.82;0.73;;;;;;;;;;5061465;28;20398;-82
2023/10/31 07:44:49;;;;;;;1.48;1.02;;;;;;;;;;5065501;28;20024;-83
2023/10/31 07:47:34;;;;;;;1.38;0.90;;;;;;;;;;5075565;28;20111;-86
2023/10/31 07:50:20;;;;;;;2.53;1.00;;;;;;;;;;5071910;28;20024;-85
2023/10/31 07:53:05;;;;;;;1.23;1.00;;;;;;;;;;5061758;28;20069;-86
2023/10/31 07:55:50;;;;;;;4.05;0.82;;;;;;;;;;5074812;28;20459;-86
2023/10/31 07:58:35;;;;;;;6.82;1.52;;;;;;;;;;5075063;28;20024;-86
2023/10/31 08:01:22;;;;;;;1.13;0.73;;;;;;;;;;5069408;28;20049;-86
2023/10/31 08:04:07;;;;;;;1.52;1.05;;;;;;;;;;5065662;28;20033;-85
2023/10/31 08:06:52;;;;;;;1.83;0.80;;;;;;;;;;5084819;28;20034;-85
2023/10/31 08:09:37;;;;;;;1.50;0.80;;;;;;;;;;5075077;28;20482;-84
2023/10/31 08:12:23;;;;;;;1.17;0.80;;;;;;;;;;5074920;28;20081;-85
2023/10/31 08:15:09;;;;;;;1.75;1.15;;;;;;;;;;5072537;28;20429;-85
2023/10/31 08:17:54;;;;;;;2.50;0.98;;;;;;;;;;5073856;28;20505;-87
2023/10/31 08:20:40;;;;;;;2.13;1.00;;;;;;;;;;5080465;28;20065;-87
2023/10/31 08:23:25;;;;;;;2.10;0.70;;;;;;;;;;5075540;28;20048;-87
2023/10/31 08:26:10;;;;;;;0.80;0.80;;;;;;;;;;5075372;28;20165;-87
2023/10/31 08:28:56;;;;;;;4.10;0.80;;;;;;;;;;5073442;28;20032;-84
2023/10/31 08:31:41;;;;;;;4.00;1.10;;;;;;;;;;5065842;28;20478;-88
2023/10/31 08:34:27;;;;;;;1.30;0.80;;;;;;;;;;5074331;28;20020;-87
2023/10/31 08:37:12;;;;;;;1.98;1.00;;;;;;;;;;5067653;28;20043;-88
2023/10/31 08:39:57;;;;;;;1.38;0.93;;;;;;;;;;5065640;28;20731;-88
2023/10/31 08:42:43;;;;;;;1.98;0.98;;;;;;;;;;5069161;28;20406;-86
2023/10/31 08:45:28;;;;;;;4.35;1.10;;;;;;;;;;5068556;28;20429;-87
2023/10/31 08:48:15;;;;;;;0.98;0.90;;;;;;;;;;5074619;28;20359;-88
2023/10/31 08:51:00;;;;;;;1.42;1.00;;;;;;;;;;5074665;28;20028;-86
2023/10/31 08:53:46;;;;;;;5.72;1.52;;;;;;;;;;5073919;28;20039;-85
2023/10/31 08:56:31;;;;;;;1.92;1.13;;;;;;;;;;5061602;28;20371;-87
2023/10/31 08:59:16;;;;;;;5.78;0.98;;;;;;;;;;5073048;28;20032;-86
2023/10/31 09:02:02;;;;;;;4.00;1.33;;;;;;;;;;5064191;28;20025;-85
2023/10/31 09:04:47;;;;;;;1.90;0.80;;;;;;;;;;5074541;28;20428;-86
2023/10/31 09:07:32;;;;;;;1.33;0.85;;;;;;;;;;5081201;28;20106;-87
2023/10/31 09:10:17;;;;;;;3.70;1.20;;;;;;;;;;5074255;28;20043;-86
2023/10/31 09:13:03;;;;;;;2.55;1.20;;;;;;;;;;5075280;28;20020;-86
2023/10/31 09:15:49;;;;;;;1.75;1.15;;;;;;;;;;5074273;28;20047;-86
2023/10/31 09:18:35;;;;;;;7.70;2.20;;;;;;;;;;5079290;28;20032;-86
2023/10/31 09:21:20;;;;;;;3.08;1.10;;;;;;;;;;5088969;28;20030;-86
2023/10/31 09:24:06;;;;;;;4.05;1.30;;;;;;;;;;5078797;28;20103;-86
2023/10/31 09:26:51;;;;;;;8.00;1.70;;;;;;;;;;5078075;28;20023;-87
2023/10/31 09:29:36;;;;;;;2.40;1.00;;;;;;;;;;5075378;28;20028;-87
2023/10/31 09:32:21;;;;;;;4.32;1.50;;;;;;;;;;5068564;28;20494;-85
2023/10/31 09:35:08;;;;;;;1.73;1.00;;;;;;;;;;5064280;28;20364;-87
2023/10/31 09:37:53;;;;;;;2.95;1.13;;;;;;;;;;5058171;28;20025;-88
2023/10/31 09:40:38;;;;;;;3.15;1.05;;;;;;;;;;5070824;28;20024;-86
2023/10/31 09:43:24;;;;;;;4.47;1.02;;;;;;;;;;5068380;28;20047;-86
2023/10/31 09:46:09;;;;;;;1.42;1.00;;;;;;;;;;5078157;28;20028;-88
2023/10/31 09:48:55;;;;;;;3.55;1.55;;;;;;;;;;5078636;28;20019;-88
2023/10/31 09:51:41;;;;;;;3.22;1.02;;;;;;;;;;5078543;28;20043;-87
2023/10/31 09:54:26;;;;;;;2.95;1.20;;;;;;;;;;5078884;28;20026;-84
2023/10/31 09:57:12;;;;;;;2.65;1.05;;;;;;;;;;5078351;28;20096;-85
2023/10/31 09:59:57;;;;;;;4.82;1.45;;;;;;;;;;5078852;28;20024;-85
2023/10/31 10:02:42;;;;;;;3.25;1.15;;;;;;;;;;5078321;28;20027;-85
2023/10/31 10:05:29;;;;;;;4.78;1.25;;;;;;;;;;5085191;28;20470;-83
2023/10/31 10:08:14;;;;;;;2.40;1.30;;;;;;;;;;5078988;28;20020;-82
2023/10/31 10:11:00;;;;;;;3.22;1.20;;;;;;;;;;5076764;28;20079;-82
2023/10/31 10:13:45;;;;;;;4.75;1.10;;;;;;;;;;5076840;28;20486;-83
2023/10/31 10:16:31;;;;;;;3.67;1.40;;;;;;;;;;5065168;28;20032;-83
2023/10/31 10:19:19;;;;;;;3.55;1.10;;;;;;;;;;5065171;28;20115;-83
2023/10/31 10:22:04;;;;;;;6.22;1.60;;;;;;;;;;5085941;28;20089;-82
2023/10/31 10:24:49;;;;;;;4.40;1.42;;;;;;;;;;5072656;28;20413;-83
2023/10/31 10:27:36;;;;;;;4.55;1.38;;;;;;;;;;5068212;28;20020;-84
2023/10/31 10:30:21;;;;;;;3.65;1.13;;;;;;;;;;5071741;28;20032;-82
2023/10/31 10:33:06;;;;;;;3.22;1.40;;;;;;;;;;5072450;28;20039;-81
2023/10/31 10:35:54;;;;;;;3.10;1.23;;;;;;;;;;5081801;28;20127;-81
2023/10/31 10:38:40;;;;;;;5.20;1.77;;;;;;;;;;5078693;28;20082;-80
2023/10/31 10:41:26;;;;;;;2.85;1.75;;;;;;;;;;5078021;28;20039;-81
2023/10/31 10:44:13;;;;;;;4.30;1.20;;;;;;;;;;5071285;28;20041;-80
2023/10/31 10:47:01;;;;;;;4.35;1.30;;;;;;;;;;5063976;28;20258;-83
2023/10/31 10:49:48;;;;;;;3.85;1.10;;;;;;;;;;5060391;28;20089;-81
2023/10/31 10:52:36;;;;;;;3.05;1.10;;;;;;;;;;5078312;28;20048;-83
2023/10/31 10:55:25;;;;;;;4.18;1.45;;;;;;;;;;5072022;28;20156;-84
2023/10/31 10:58:22;;;;;;;6.22;1.77;;;;;;;;;;5065877;28;20020;-84
2023/10/31 11:01:08;;;;;;;4.00;1.10;;;;;;;;;;5068936;28;20032;-83
2023/10/31 11:03:55;;;;;;;2.10;1.10;;;;;;;;;;5065736;28;20099;-83
2023/10/31 11:06:40;;;;;;;4.80;1.10;;;;;;;;;;5075199;28;20421;-83
2023/10/31 11:09:26;;;;;;;7.68;1.00;;;;;;;;;;5075857;28;20044;-80
2023/10/31 11:12:11;;;;;;;4.65;1.00;;;;;;;;;;5077046;28;20024;-81
2023/10/31 11:14:57;;;;;;;3.22;1.00;;;;;;;;;;5062299;28;20475;-82
2023/10/31 11:17:43;;;;;;;3.45;1.33;;;;;;;;;;5076781;28;20046;-82
2023/10/31 11:20:29;;;;;;;4.32;0.93;;;;;;;;;;5059394;28;20038;-82
2023/10/31 11:23:14;;;;;;;2.97;1.45;;;;;;;;;;5073762;28;20086;-82
2023/10/31 11:26:00;;;;;;;5.03;1.38;;;;;;;;;;5076812;28;20020;-82
2023/10/31 11:28:45;;;;;;;2.50;1.10;;;;;;;;;;5060065;28;20032;-82
2023/10/31 11:31:30;;;;;;;2.92;1.20;;;;;;;;;;5076199;28;20569;-81
2023/10/31 11:34:17;;;;;;;4.43;1.40;;;;;;;;;;5077022;28;20031;-84
2023/10/31 11:37:18;;;;;;;2.88;0.90;;;;;;;;;;5083948;28;20031;-83
2023/10/31 11:40:13;;;;;;;3.75;1.35;;;;;;;;;;5076586;28;20109;-82
2023/10/31 11:42:58;;;;;;;2.35;1.10;;;;;;;;;;5081850;28;20033;-83
2023/10/31 11:45:46;;;;;;;4.20;1.20;;;;;;;;;;5070739;28;20023;-85
2023/10/31 11:48:45;;;;;;;3.13;1.02;;;;;;;;;;5076689;28;20079;-84
2023/10/31 11:51:35;;;;;;;4.60;0.90;;;;;;;;;;5065216;28;20058;-83
2023/10/31 11:54:20;;;;;;;1.17;0.82;;;;;;;;;;5075525;28;20069;-85
2023/10/31 11:57:05;;;;;;;2.08;0.90;;;;;;;;;;5075847;28;20030;-84
2023/10/31 11:59:50;;;;;;;1.45;0.80;;;;;;;;;;5071313;28;20016;-84
2023/10/31 12:02:36;;;;;;;0.75;0.57;;;;;;;;;;5075259;28;20012;-86
2023/10/31 12:05:21;;;;;;;1.88;0.77;;;;;;;;;;5071777;28;20149;-85
2023/10/31 12:08:06;;;;;;;2.60;0.80;;;;;;;;;;5076271;28;20022;-85
2023/10/31 12:10:51;;;;;;;1.75;0.85;;;;;;;;;;5063074;28;20060;-87
2023/10/31 12:13:38;;;;;;;2.20;0.77;;;;;;;;;;5056130;28;20028;-82
2023/10/31 12:16:28;;;;;;;0.85;0.60;;;;;;;;;;5054580;28;20108;-83
2023/10/31 12:19:13;;;;;;;1.27;0.70;;;;;;;;;;5055068;28;20021;-84
2023/10/31 12:21:58;;;;;;;1.40;0.60;;;;;;;;;;5044814;28;20023;-84
2023/10/31 12:24:43;;;;;;;1.38;0.80;;;;;;;;;;5056330;28;20029;-83
2023/10/31 12:27:47;;;;;;;4.47;0.73;;;;;;;;;;5055426;28;20032;-89
2023/10/31 12:30:32;;;;;;;3.55;1.15;;;;;;;;;;5036765;28;20112;-85
2023/10/31 12:33:17;;;;;;;7.03;2.17;;;;;;;;;;5069871;28;20386;-81
2023/10/31 12:36:02;;;;;;;3.28;0.88;;;;;;;;;;5054456;28;20123;-84
2023/10/31 12:38:48;;;;;;;1.63;0.80;;;;;;;;;;5053093;28;20039;-87
2023/10/31 12:41:34;;;;;;;2.30;0.80;;;;;;;;;;5055486;28;20033;-82
2023/10/31 12:44:23;;;;;;;1.33;0.73;;;;;;;;;;5039732;28;20020;-84
2023/10/31 12:47:08;;;;;;;1.67;0.60;;;;;;;;;;5055178;28;20028;-82
2023/10/31 12:50:07;;;;;;;0.73;0.70;;;;;;;;;;5043469;28;20028;-79
2023/10/31 12:52:53;;;;;;;0.93;0.68;;;;;;;;;;5053387;28;20032;-80
2023/10/31 12:55:39;;;;;;;1.38;0.85;;;;;;;;;;5055482;28;20308;-81
2023/10/31 12:58:24;;;;;;;3.53;0.73;;;;;;;;;;5042778;28;20023;-79
2023/10/31 13:01:13;;;;;;;1.13;0.95;;;;;;;;;;5054103;28;20025;-80
2023/10/31 13:03:58;;;;;;;3.60;1.48;;;;;;;;;;5055098;28;20028;-79
2023/10/31 13:06:54;;;;;;;3.13;1.13;;;;;;;;;;5049545;28;20071;-80
2023/10/31 13:09:41;;;;;;;1.50;0.80;;;;;;;;;;5061787;28;20398;-82
2023/10/31 13:12:27;;;;;;;1.52;0.60;;;;;;;;;;5074425;28;20043;-80
2023/10/31 13:15:14;;;;;;;1.65;1.10;;;;;;;;;;5074252;28;20031;-81
2023/10/31 13:17:59;;;;;;;4.35;0.93;;;;;;;;;;5075098;28;20024;-82
2023/10/31 13:20:45;;;;;;;1.52;0.80;;;;;;;;;;5074456;28;20028;-80
2023/10/31 13:23:30;;;;;;;1.00;0.80;;;;;;;;;;5074460;28;20020;-81
2023/10/31 13:26:15;;;;;;;2.88;1.00;;;;;;;;;;5074213;28;20035;-79
2023/10/31 13:29:01;;;;;;;1.15;0.68;;;;;;;;;;5067010;28;20111;-81
2023/10/31 13:31:46;;;;;;;1.50;0.77;;;;;;;;;;5064645;28;20105;-80
2023/10/31 13:34:32;;;;;;;0.63;0.63;;;;;;;;;;5074988;28;20402;-80
2023/10/31 13:37:18;;;;;;;1.85;1.00;;;;;;;;;;5073068;28;20450;-81
2023/10/31 13:40:03;;;;;;;1.65;0.75;;;;;;;;;;5079629;28;20107;-81
2023/10/31 13:42:48;;;;;;;1.33;0.80;;;;;;;;;;5068001;28;20070;-80
2023/10/31 13:45:33;;;;;;;3.22;0.90;;;;;;;;;;5069144;28;20020;-81
2023/10/31 13:48:19;;;;;;;2.78;0.70;;;;;;;;;;5064191;28;20055;-81
2023/10/31 13:51:05;;;;;;;3.13;1.02;;;;;;;;;;5059313;28;20382;-81
2023/10/31 13:53:50;;;;;;;1.30;0.70;;;;;;;;;;5074751;28;20517;-80
2023/10/31 13:56:35;;;;;;;2.03;1.10;;;;;;;;;;5073670;28;20537;-81
2023/10/31 13:59:21;;;;;;;2.15;1.52;;;;;;;;;;5074795;28;20039;-83
2023/10/31 14:02:06;;;;;;;3.00;1.35;;;;;;;;;;5074719;28;20058;-80
2023/10/31 14:04:51;;;;;;;5.00;1.05;;;;;;;;;;5063567;28;20066;-80
2023/10/31 14:07:37;;;;;;;5.32;1.13;;;;;;;;;;5077718;28;20031;-79
2023/10/31 14:10:23;;;;;;;4.93;1.00;;;;;;;;;;5069727;28;20082;-82
2023/10/31 14:13:08;;;;;;;3.13;1.27;;;;;;;;;;5077646;28;20485;-83
2023/10/31 14:15:53;;;;;;;3.90;1.63;;;;;;;;;;5083856;28;20016;-85
2023/10/31 14:18:39;;;;;;;2.63;1.02;;;;;;;;;;5068144;28;20032;-84
2023/10/31 14:21:25;;;;;;;2.40;1.15;;;;;;;;;;5076456;28;20043;-84
2023/10/31 14:24:10;;;;;;;4.63;0.95;;;;;;;;;;5069783;28;20156;-86
2023/10/31 14:26:56;;;;;;;2.92;1.10;;;;;;;;;;5077984;28;20026;-84
2023/10/31 14:29:41;;;;;;;4.30;0.93;;;;;;;;;;5063240;28;20031;-85
2023/10/31 14:32:26;;;;;;;3.00;0.95;;;;;;;;;;5067014;28;20397;-85
2023/10/31 14:35:11;;;;;;;3.35;1.00;;;;;;;;;;5077780;28;20378;-84
2023/10/31 14:37:56;;;;;;;1.38;0.85;;;;;;;;;;5086166;28;20059;-86
2023/10/31 14:40:42;;;;;;;1.23;0.80;;;;;;;;;;5078036;28;20016;-86
2023/10/31 14:43:27;;;;;;;3.00;1.10;;;;;;;;;;5064781;28;20107;-85
2023/10/31 14:46:12;;;;;;;1.20;0.80;;;;;;;;;;5075987;28;20363;-86
2023/10/31 14:48:58;;;;;;;2.63;0.70;;;;;;;;;;5072621;28;20107;-86
2023/10/31 14:51:43;;;;;;;1.70;0.88;;;;;;;;;;5077629;28;20044;-86
2023/10/31 14:54:29;;;;;;;2.45;0.90;;;;;;;;;;5078687;28;20023;-85
2023/10/31 14:57:14;;;;;;;2.72;0.80;;;;;;;;;;5077337;28;20390;-85
2023/10/31 15:00:00;;;;;;;1.50;0.90;;;;;;;;;;5078605;28;20156;-86
2023/10/31 15:02:45;;;;;;;1.15;0.70;;;;;;;;;;5077366;28;20090;-84
2023/10/31 15:05:33;;;;;;;0.73;0.60;;;;;;;;;;5074727;28;20019;-84
2023/10/31 15:08:19;;;;;;;3.67;0.90;;;;;;;;;;5072884;28;20074;-85
2023/10/31 15:11:04;;;;;;;3.80;1.65;;;;;;;;;;5058245;28;20114;-85
2023/10/31 15:13:49;;;;;;;1.50;0.90;;;;;;;;;;5077691;28;20509;-84
2023/10/31 15:16:36;;;;;;;2.00;1.08;;;;;;;;;;5074307;28;20100;-86
2023/10/31 15:19:21;;;;;;;2.67;0.80;;;;;;;;;;5077039;28;20106;-84
2023/10/31 15:22:06;;;;;;;1.67;0.85;;;;;;;;;;5077886;28;20033;-85
2023/10/31 15:24:51;;;;;;;2.17;0.90;;;;;;;;;;5078673;28;20032;-85
2023/10/31 15:27:37;;;;;;;3.65;1.23;;;;;;;;;;5060792;28;20021;-85
2023/10/31 15:30:22;;;;;;;1.23;0.90;;;;;;;;;;5073622;28;20024;-85
2023/10/31 15:33:07;;;;;;;3.08;1.10;;;;;;;;;;5075868;28;20062;-85
2023/10/31 15:35:52;;;;;;;1.45;1.08;;;;;;;;;;5077899;28;20559;-85
2023/10/31 15:38:38;;;;;;;1.83;0.85;;;;;;;;;;5109515;28;20020;-85
2023/10/31 15:41:24;;;;;;;4.00;1.48;;;;;;;;;;5100439;28;20012;-85
2023/10/31 15:44:09;;;;;;;3.63;0.98;;;;;;;;;;5059355;28;20035;-84
2023/10/31 15:46:55;;;;;;;4.28;1.00;;;;;;;;;;5069369;28;20264;-85
2023/10/31 15:49:40;;;;;;;4.20;0.95;;;;;;;;;;5063057;28;20031;-85
2023/10/31 15:52:25;;;;;;;1.58;1.15;;;;;;;;;;5067306;28;20035;-86
2023/10/31 15:55:10;;;;;;;1.60;0.90;;;;;;;;;;5077011;28;20543;-86
2023/10/31 15:57:55;;;;;;;3.60;1.17;;;;;;;;;;5066740;28;20023;-86
2023/10/31 16:00:40;;;;;;;5.53;1.25;;;;;;;;;;5076792;28;20020;-87
2023/10/31 16:03:26;;;;;;;2.65;0.75;;;;;;;;;;5076646;28;20028;-86
2023/10/31 16:06:11;;;;;;;2.13;1.00;;;;;;;;;;5076864;28;20059;-85
2023/10/31 16:08:56;;;;;;;0.90;0.75;;;;;;;;;;5073526;28;20112;-85
2023/10/31 16:11:41;;;;;;;4.60;1.50;;;;;;;;;;5056713;28;20036;-85
2023/10/31 16:14:26;;;;;;;3.05;0.93;;;;;;;;;;5070552;28;20031;-85
2023/10/31 16:17:12;;;;;;;2.25;1.00;;;;;;;;;;5074543;28;20071;-86
2023/10/31 16:19:57;;;;;;;1.67;0.77;;;;;;;;;;5074182;28;20034;-87
2023/10/31 16:22:42;;;;;;;4.03;1.17;;;;;;;;;;5079129;28;20028;-87
2023/10/31 16:25:27;;;;;;;2.38;0.98;;;;;;;;;;5063120;28;20016;-88
2023/10/31 16:28:12;;;;;;;2.47;1.00;;;;;;;;;;5075733;28;20020;-88
2023/10/31 16:30:58;;;;;;;3.55;1.40;;;;;;;;;;5065345;28;20052;-87
2023/10/31 16:33:43;;;;;;;4.82;1.20;;;;;;;;;;5069812;28;20028;-87